createdAt,value
2018-10-09T00:00:07.538Z,95456.34
2018-10-09T00:02:36.907Z,95463.48
2018-10-09T00:05:06.546Z,95459.06
2018-10-09T00:07:35.883Z,95461.36
2018-10-09T00:10:05.307Z,95464.15
2018-10-09T00:12:34.692Z,95462.87
2018-10-09T00:15:04.019Z,95467.98
2018-10-09T00:17:33.384Z,95463.91
2018-10-09T00:20:02.864Z,95468.72
2018-10-09T00:22:32.384Z,95462.36
2018-10-09T00:25:01.774Z,95466.03
2018-10-09T00:27:31.166Z,95464.53
2018-10-09T00:30:00.479Z,95465.27
2018-10-09T00:32:29.834Z,95468.37
2018-10-09T00:34:59.176Z,95472.50
2018-10-09T00:37:28.536Z,95468.97
2018-10-09T00:39:57.896Z,95474.12
2018-10-09T00:42:27.255Z,95474.16
2018-10-09T00:44:56.651Z,95469.59
2018-10-09T00:47:26.043Z,95467.22
2018-10-09T00:49:55.408Z,95477.16
2018-10-09T00:52:24.734Z,95465.73
2018-10-09T00:54:54.114Z,95469.80
2018-10-09T00:57:23.471Z,95458.34
2018-10-09T00:59:52.855Z,95456.37
2018-10-09T01:02:22.295Z,95458.04
2018-10-09T01:04:51.676Z,95459.47
2018-10-09T01:07:21.388Z,95462.87
2018-10-09T01:09:50.867Z,95467.75
2018-10-09T01:12:20.221Z,95461.05
2018-10-09T01:14:50.855Z,95464.22
2018-10-09T01:17:20.278Z,95462.77
2018-10-09T01:19:49.787Z,95468.91
2018-10-09T01:22:19.141Z,95469.44
2018-10-09T01:24:48.594Z,95468.41
2018-10-09T01:27:18.038Z,95470.33
2018-10-09T01:29:47.442Z,95468.74
2018-10-09T01:32:16.911Z,95469.47
2018-10-09T01:34:46.343Z,95473.92
2018-10-09T01:37:15.730Z,95473.42
2018-10-09T01:39:45.104Z,95464.95
2018-10-09T01:42:14.492Z,95463.50
2018-10-09T01:44:43.838Z,95470.80
2018-10-09T01:47:13.202Z,95459.02
2018-10-09T01:49:42.514Z,95458.87
2018-10-09T01:52:11.878Z,95455.44
2018-10-09T01:54:41.231Z,95455.02
2018-10-09T01:57:10.575Z,95459.58
2018-10-09T01:59:39.898Z,95456.53
2018-10-09T02:02:09.215Z,95453.96
2018-10-09T02:04:38.576Z,95458.78
2018-10-09T02:07:07.947Z,95455.81
2018-10-09T02:09:37.283Z,95458.45
2018-10-09T02:12:06.575Z,95460.95
2018-10-09T02:14:35.955Z,95458.81
2018-10-09T02:17:05.283Z,95461.55
2018-10-09T02:19:34.640Z,95459.77
2018-10-09T02:22:04.006Z,95466.66
2018-10-09T02:24:33.348Z,95471.71
2018-10-09T02:27:02.735Z,95474.16
2018-10-09T02:29:32.110Z,95466.50
2018-10-09T02:32:01.437Z,95474.42
2018-10-09T02:34:30.751Z,95473.79
2018-10-09T02:37:00.111Z,95471.84
2018-10-09T02:39:29.447Z,95469.09
2018-10-09T02:41:58.763Z,95470.78
2018-10-09T02:44:28.227Z,95467.67
2018-10-09T02:46:57.522Z,95467.38
2018-10-09T02:49:26.806Z,95475.12
2018-10-09T02:51:56.145Z,95468.25
2018-10-09T02:54:25.492Z,95473.20
2018-10-09T02:56:54.822Z,95465.77
2018-10-09T02:59:24.266Z,95462.02
2018-10-09T03:01:53.853Z,95463.37
2018-10-09T03:04:23.243Z,95460.13
2018-10-09T03:06:52.610Z,95457.81
2018-10-09T03:09:21.946Z,95453.44
2018-10-09T03:11:51.338Z,95451.44
2018-10-09T03:14:20.660Z,95448.45
2018-10-09T03:16:50.042Z,95453.38
2018-10-09T03:19:19.533Z,95450.63
2018-10-09T03:21:48.899Z,95455.71
2018-10-09T03:24:18.290Z,95452.98
2018-10-09T03:26:47.699Z,95446.63
2018-10-09T03:29:17.052Z,95446.89
2018-10-09T03:31:46.490Z,95449.67
2018-10-09T03:34:15.855Z,95447.13
2018-10-09T03:36:45.179Z,95450.80
2018-10-09T03:39:14.553Z,95446.41
2018-10-09T03:41:43.886Z,95451.55
2018-10-09T03:44:13.294Z,95447.62
2018-10-09T03:46:42.687Z,95445.45
2018-10-09T03:49:12.136Z,95451.48
2018-10-09T03:51:41.543Z,95444.13
2018-10-09T03:54:10.998Z,95452.58
2018-10-09T03:56:40.358Z,95447.16
2018-10-09T03:59:09.743Z,95447.73
2018-10-09T04:01:39.076Z,95455.94
2018-10-09T04:04:08.424Z,95446.67
2018-10-09T04:06:37.799Z,95451.42
2018-10-09T04:09:11.573Z,95445.81
2018-10-09T04:11:41.157Z,95375.78
2018-10-09T04:14:10.494Z,95454.59
2018-10-09T04:16:39.794Z,95456.98
2018-10-09T04:19:09.142Z,95455.08
2018-10-09T04:21:38.498Z,95460.48
2018-10-09T04:24:07.817Z,95453.49
2018-10-09T04:26:37.114Z,95455.86
2018-10-09T04:29:06.518Z,95459.16
2018-10-09T04:31:35.844Z,95468.73
2018-10-09T04:34:05.226Z,95473.79
2018-10-09T04:36:34.545Z,95481.28
2018-10-09T04:39:05.419Z,95480.20
2018-10-09T04:41:34.772Z,95478.91
2018-10-09T04:44:04.201Z,95476.27
2018-10-09T04:46:33.624Z,95484.52
2018-10-09T04:49:03.007Z,95481.05
2018-10-09T04:51:32.785Z,95485.03
2018-10-09T04:54:02.160Z,95482.73
2018-10-09T04:56:31.465Z,95476.98
2018-10-09T04:59:00.800Z,95478.69
2018-10-09T05:01:30.120Z,95478.36
2018-10-09T05:03:59.692Z,95477.29
2018-10-09T05:06:29.008Z,95476.16
2018-10-09T05:08:58.429Z,95474.16
2018-10-09T05:11:27.808Z,95479.40
2018-10-09T05:13:57.151Z,95480.85
2018-10-09T05:16:26.493Z,95484.25
2018-10-09T05:18:55.907Z,95490.55
2018-10-09T05:21:25.307Z,95485.14
2018-10-09T05:23:54.661Z,95494.22
2018-10-09T05:26:24.083Z,95491.51
2018-10-09T05:28:53.442Z,95488.31
2018-10-09T05:31:22.955Z,95488.27
2018-10-09T05:33:52.269Z,95494.66
2018-10-09T05:36:21.652Z,95503.04
2018-10-09T05:38:51.087Z,95501.11
2018-10-09T05:41:21.268Z,95509.38
2018-10-09T05:43:50.634Z,95506.47
2018-10-09T05:46:20.031Z,95498.98
2018-10-09T05:48:49.358Z,95496.86
2018-10-09T05:51:18.844Z,95493.36
2018-10-09T05:53:48.217Z,95495.86
2018-10-09T05:56:17.607Z,95492.77
2018-10-09T05:58:46.974Z,95489.82
2018-10-09T06:01:16.368Z,95487.11
2018-10-09T06:03:45.715Z,95486.88
2018-10-09T06:06:15.116Z,95489.77
2018-10-09T06:08:44.497Z,95488.78
2018-10-09T06:11:14.179Z,95493.41
2018-10-09T06:13:43.787Z,95498.76
2018-10-09T06:16:13.119Z,95501.74
2018-10-09T06:18:42.532Z,95502.23
2018-10-09T06:21:11.965Z,95499.56
2018-10-09T06:23:41.344Z,95502.55
2018-10-09T06:26:10.708Z,95504.12
2018-10-09T06:28:40.043Z,95505.88
2018-10-09T06:31:09.504Z,95509.09
2018-10-09T06:33:38.879Z,95510.03
2018-10-09T06:36:08.463Z,95512.92
2018-10-09T06:38:37.851Z,95510.05
2018-10-09T06:41:07.260Z,95508.55
2018-10-09T06:43:36.705Z,95507.11
2018-10-09T06:46:06.023Z,95505.38
2018-10-09T06:48:35.322Z,95502.88
2018-10-09T06:51:04.698Z,95510.42
2018-10-09T06:53:34.895Z,95507.97
2018-10-09T06:56:04.211Z,95502.02
2018-10-09T06:58:33.552Z,95504.61
2018-10-09T07:01:03.012Z,95498.88
2018-10-09T07:03:32.444Z,95501.29
2018-10-09T07:06:01.906Z,95504.17
2018-10-09T07:08:31.140Z,95507.63
2018-10-09T07:11:00.546Z,95506.27
2018-10-09T07:13:30.185Z,95509.44
2018-10-09T07:15:59.555Z,95511.10
2018-10-09T07:18:28.986Z,95511.23
2018-10-09T07:20:58.342Z,95513.81
2018-10-09T07:23:27.658Z,95513.05
2018-10-09T07:25:57.102Z,95512.60
2018-10-09T07:28:26.474Z,95519.23
2018-10-09T07:30:55.901Z,95521.16
2018-10-09T07:33:25.202Z,95527.16
2018-10-09T07:35:54.528Z,95531.97
2018-10-09T07:38:24.102Z,95538.33
2018-10-09T07:40:53.651Z,95547.40
2018-10-09T07:43:23.052Z,95534.25
2018-10-09T07:45:52.371Z,95544.50
2018-10-09T07:48:21.763Z,95551.73
2018-10-09T07:50:51.132Z,95551.66
2018-10-09T07:53:20.484Z,95555.05
2018-10-09T07:55:49.815Z,95550.26
2018-10-09T07:58:19.117Z,95553.31
2018-10-09T08:00:48.505Z,95553.00
2018-10-09T08:03:17.804Z,95557.84
2018-10-09T08:05:47.154Z,95556.48
2018-10-09T08:08:16.836Z,95561.39
2018-10-09T08:10:46.218Z,95556.70
2018-10-09T08:13:15.573Z,95557.34
2018-10-09T08:15:44.931Z,95557.30
2018-10-09T08:18:14.240Z,95561.03
2018-10-09T08:20:43.570Z,95558.16
2018-10-09T08:23:12.919Z,95555.33
2018-10-09T08:25:42.253Z,95564.39
2018-10-09T08:28:11.585Z,95563.95
2018-10-09T08:30:40.947Z,95566.42
2018-10-09T08:33:10.336Z,95561.30
2018-10-09T08:35:39.731Z,95565.98
2018-10-09T08:38:09.171Z,95564.22
2018-10-09T08:40:38.590Z,95560.34
2018-10-09T08:43:07.912Z,95559.19
2018-10-09T08:45:37.246Z,95563.92
2018-10-09T08:48:06.687Z,95561.02
2018-10-09T08:50:36.117Z,95556.19
2018-10-09T08:53:05.459Z,95559.33
2018-10-09T08:55:34.873Z,95562.22
2018-10-09T08:58:04.207Z,95564.24
2018-10-09T09:00:33.686Z,95563.41
2018-10-09T09:03:03.053Z,95556.91
2018-10-09T09:05:32.408Z,95558.59
2018-10-09T09:08:01.775Z,95520.05
2018-10-09T09:10:31.036Z,95565.26
2018-10-09T09:13:00.387Z,95566.41
2018-10-09T09:15:29.877Z,95566.92
2018-10-09T09:17:59.183Z,95560.69
2018-10-09T09:20:28.796Z,95559.22
2018-10-09T09:22:58.254Z,95563.03
2018-10-09T09:25:27.656Z,95555.48
2018-10-09T09:27:57.116Z,95550.06
2018-10-09T09:30:26.520Z,95555.67
2018-10-09T09:32:55.912Z,95556.92
2018-10-09T09:35:25.293Z,95558.72
2018-10-09T09:37:54.644Z,95549.22
2018-10-09T09:40:23.927Z,95555.97
2018-10-09T09:42:53.303Z,95554.76
2018-10-09T09:45:22.618Z,95548.13
2018-10-09T09:47:51.923Z,95552.19
2018-10-09T09:50:21.268Z,95553.66
2018-10-09T09:52:50.670Z,95548.00
2018-10-09T09:55:19.994Z,95546.16
2018-10-09T09:57:49.388Z,95551.00
2018-10-09T10:00:24.114Z,95548.72
2018-10-09T10:02:53.480Z,95547.08
2018-10-09T10:05:22.812Z,95548.03
2018-10-09T10:07:52.217Z,95544.94
2018-10-09T10:10:21.592Z,95539.77
2018-10-09T10:12:50.971Z,95535.34
2018-10-09T10:15:20.392Z,95544.49
2018-10-09T10:17:49.739Z,95550.59
2018-10-09T10:20:19.158Z,95552.98
2018-10-09T10:22:48.522Z,95551.55
2018-10-09T10:25:17.831Z,95550.25
2018-10-09T10:27:47.275Z,95541.81
2018-10-09T10:30:16.755Z,95540.28
2018-10-09T10:32:46.171Z,95543.56
2018-10-09T10:35:15.653Z,95540.16
2018-10-09T10:37:45.049Z,95542.72
2018-10-09T10:40:14.536Z,95545.68
2018-10-09T10:42:44.188Z,95546.61
2018-10-09T10:45:13.658Z,95538.70
2018-10-09T10:47:43.171Z,95537.23
2018-10-09T10:50:12.618Z,95537.41
2018-10-09T10:52:42.075Z,95537.45
2018-10-09T10:55:11.543Z,95531.50
2018-10-09T10:57:40.868Z,95537.48
2018-10-09T11:00:10.296Z,95542.19
2018-10-09T11:02:39.640Z,95532.15
2018-10-09T11:05:08.942Z,95529.23
2018-10-09T11:07:38.291Z,95528.50
2018-10-09T11:10:08.276Z,95526.63
2018-10-09T11:12:37.622Z,95528.33
2018-10-09T11:15:06.956Z,95523.40
2018-10-09T11:17:36.297Z,95523.66
2018-10-09T11:20:05.758Z,95519.52
2018-10-09T11:22:35.117Z,95518.72
2018-10-09T11:25:04.523Z,95514.88
2018-10-09T11:27:35.169Z,95525.34
2018-10-09T11:30:05.825Z,95517.95
2018-10-09T11:32:35.304Z,95522.09
2018-10-09T11:35:04.667Z,95521.58
2018-10-09T11:37:34.145Z,95521.81
2018-10-09T11:40:03.583Z,95513.94
2018-10-09T11:42:33.051Z,95508.48
2018-10-09T11:45:02.499Z,95519.14
2018-10-09T11:47:31.880Z,95520.81
2018-10-09T11:50:01.256Z,95515.80
2018-10-09T11:52:30.606Z,95515.89
2018-10-09T11:54:59.974Z,95509.13
2018-10-09T11:57:29.331Z,95509.11
2018-10-09T11:59:58.756Z,95507.61
2018-10-09T12:02:29.102Z,95504.63
2018-10-09T12:04:58.460Z,95499.56
2018-10-09T12:07:27.998Z,95493.08
2018-10-09T12:09:57.581Z,95487.57
2018-10-09T12:12:26.937Z,95477.55
2018-10-09T12:14:56.263Z,95475.65
2018-10-09T12:17:25.683Z,95480.84
2018-10-09T12:19:55.156Z,95478.33
2018-10-09T12:22:24.464Z,95481.73
2018-10-09T12:24:53.826Z,95482.89
2018-10-09T12:27:23.159Z,95488.11
2018-10-09T12:29:52.776Z,95487.19
2018-10-09T12:32:22.207Z,95486.88
2018-10-09T12:34:51.551Z,95478.73
2018-10-09T12:37:21.851Z,95482.53
2018-10-09T12:39:51.252Z,95479.77
2018-10-09T12:42:20.585Z,95473.53
2018-10-09T12:44:49.968Z,95466.10
2018-10-09T12:47:19.257Z,95465.14
2018-10-09T12:49:48.591Z,95466.14
2018-10-09T12:52:17.859Z,95464.80
2018-10-09T12:54:47.312Z,95460.83
2018-10-09T12:57:16.940Z,95458.42
2018-10-09T12:59:46.263Z,95453.81
2018-10-09T13:02:15.592Z,95447.70
2018-10-09T13:04:44.947Z,95451.28
2018-10-09T13:07:14.230Z,95450.17
2018-10-09T13:09:43.935Z,95453.30
2018-10-09T13:12:13.220Z,95456.44
2018-10-09T13:14:42.493Z,95449.96
2018-10-09T13:17:11.881Z,95460.19
2018-10-09T13:19:41.186Z,95449.80
2018-10-09T13:22:10.765Z,95455.81
2018-10-09T13:24:39.833Z,95447.38
2018-10-09T13:27:09.840Z,95441.69
2018-10-09T13:29:39.174Z,95441.80
2018-10-09T13:32:08.447Z,95441.36
2018-10-09T13:34:37.915Z,95437.05
2018-10-09T13:37:07.149Z,95434.54
2018-10-09T13:39:36.503Z,95439.12
2018-10-09T13:42:05.911Z,95437.58
2018-10-09T13:44:35.277Z,95438.27
2018-10-09T13:47:04.632Z,95433.45
2018-10-09T13:49:33.983Z,95433.60
2018-10-09T13:52:03.399Z,95436.98
2018-10-09T13:54:32.782Z,95434.19
2018-10-09T13:57:02.126Z,95428.56
2018-10-09T13:59:31.513Z,95429.81
2018-10-09T14:02:00.889Z,95425.13
2018-10-09T14:04:30.260Z,95427.36
2018-10-09T14:06:59.577Z,95427.58
2018-10-09T14:09:28.935Z,95427.82
2018-10-09T14:11:58.337Z,95428.48
2018-10-09T14:14:27.748Z,95430.30
2018-10-09T14:16:57.105Z,95436.27
2018-10-09T14:19:26.830Z,95433.80
2018-10-09T14:21:56.231Z,95430.64
2018-10-09T14:24:26.823Z,95423.31
2018-10-09T14:26:56.155Z,95430.55
2018-10-09T14:29:25.505Z,95436.84
2018-10-09T14:31:54.768Z,95436.92
2018-10-09T14:34:24.085Z,95437.75
2018-10-09T14:36:53.378Z,95438.85
2018-10-09T14:39:22.826Z,95434.84
2018-10-09T14:41:52.237Z,95444.01
2018-10-09T14:44:21.589Z,95438.30
2018-10-09T14:46:50.864Z,95441.30
2018-10-09T14:49:20.164Z,95447.70
2018-10-09T14:51:49.580Z,95443.67
2018-10-09T14:54:19.020Z,95439.94
2018-10-09T14:56:48.327Z,95449.47
2018-10-09T14:59:17.643Z,95445.10
2018-10-09T15:01:46.990Z,95437.13
2018-10-09T15:04:16.380Z,95433.45
2018-10-09T15:06:45.649Z,95435.39
2018-10-09T15:09:15.111Z,95431.34
2018-10-09T15:11:44.855Z,95446.43
2018-10-09T15:14:14.270Z,95450.98
2018-10-09T15:16:43.689Z,95450.77
2018-10-09T15:19:12.968Z,95455.91
2018-10-09T15:21:42.295Z,95451.17
2018-10-09T15:24:11.567Z,95454.47
2018-10-09T15:26:40.982Z,95457.05
2018-10-09T15:29:10.302Z,95454.41
2018-10-09T15:31:39.644Z,95444.32
2018-10-09T15:34:08.952Z,95452.17
2018-10-09T15:36:38.313Z,95459.59
2018-10-09T15:39:10.877Z,95460.97
2018-10-09T15:41:40.334Z,95456.52
2018-10-09T15:44:09.579Z,95454.85
2018-10-09T15:46:38.914Z,95461.25
2018-10-09T15:49:08.215Z,95449.11
2018-10-09T15:51:37.524Z,95457.99
2018-10-09T15:54:06.811Z,95462.87
2018-10-09T15:56:36.591Z,95459.54
2018-10-09T15:59:06.470Z,95461.53
2018-10-09T16:01:35.798Z,95461.64
2018-10-09T16:04:05.290Z,95460.92
2018-10-09T16:06:34.787Z,95462.04
2018-10-09T16:09:05.377Z,95463.33
2018-10-09T16:11:35.694Z,95464.30
2018-10-09T16:14:05.254Z,95463.62
2018-10-09T16:16:34.619Z,95461.91
2018-10-09T16:19:04.066Z,95462.52
2018-10-09T16:21:33.517Z,95455.96
2018-10-09T16:24:02.921Z,95457.61
2018-10-09T16:26:32.210Z,95456.77
2018-10-09T16:29:01.516Z,95461.61
2018-10-09T16:31:30.901Z,95454.73
2018-10-09T16:34:00.192Z,95453.69
2018-10-09T16:36:29.569Z,95452.11
2018-10-09T16:38:59.002Z,95460.71
2018-10-09T16:41:28.332Z,95456.28
2018-10-09T16:43:57.606Z,95452.91
2018-10-09T16:46:26.961Z,95453.70
2018-10-09T16:48:56.269Z,95453.58
2018-10-09T16:51:25.592Z,95456.98
2018-10-09T16:53:54.908Z,95449.05
2018-10-09T16:56:24.239Z,95449.15
2018-10-09T16:58:53.565Z,95447.14
2018-10-09T17:01:22.891Z,95448.75
2018-10-09T17:03:52.197Z,95450.97
2018-10-09T17:06:21.530Z,95452.05
2018-10-09T17:08:50.846Z,95450.64
2018-10-09T17:11:20.213Z,95450.91
2018-10-09T17:13:49.576Z,95447.50
2018-10-09T17:16:18.901Z,95454.03
2018-10-09T17:18:48.205Z,95456.10
2018-10-09T17:21:17.528Z,95454.08
2018-10-09T17:23:47.494Z,95449.58
2018-10-09T17:26:16.868Z,95448.25
2018-10-09T17:28:46.174Z,95440.09
2018-10-09T17:31:15.535Z,95440.22
2018-10-09T17:33:44.875Z,95442.09
2018-10-09T17:36:14.270Z,95438.67
2018-10-09T17:38:43.580Z,95439.62
2018-10-09T17:41:12.902Z,95440.05
2018-10-09T17:43:42.267Z,95436.03
2018-10-09T17:46:11.658Z,95440.41
2018-10-09T17:48:41.167Z,95433.97
2018-10-09T17:51:10.455Z,95439.91
2018-10-09T17:53:39.825Z,95438.87
2018-10-09T17:56:09.093Z,95443.27
2018-10-09T17:58:38.387Z,95442.09
2018-10-09T18:01:07.688Z,95439.14
2018-10-09T18:03:37.036Z,95439.02
2018-10-09T18:06:06.380Z,95447.27
2018-10-09T18:08:35.766Z,95440.44
2018-10-09T18:11:05.054Z,95447.25
2018-10-09T18:13:34.299Z,95448.91
2018-10-09T18:16:03.636Z,95446.70
2018-10-09T18:18:32.943Z,95452.91
2018-10-09T18:21:02.315Z,95458.78
2018-10-09T18:23:31.607Z,95451.33
2018-10-09T18:26:01.644Z,95450.27
2018-10-09T18:28:31.028Z,95446.44
2018-10-09T18:31:00.394Z,95446.44
2018-10-09T18:33:29.721Z,95440.27
2018-10-09T18:35:59.009Z,95444.56
2018-10-09T18:38:28.350Z,95439.67
2018-10-09T18:40:57.797Z,95441.35
2018-10-09T18:43:27.203Z,95444.89
2018-10-09T18:45:56.596Z,95439.20
2018-10-09T18:48:25.887Z,95440.40
2018-10-09T18:50:55.219Z,95446.34
2018-10-09T18:53:24.525Z,95450.17
2018-10-09T18:55:53.827Z,95448.35
2018-10-09T18:58:23.200Z,95443.04
2018-10-09T19:00:52.501Z,95439.74
2018-10-09T19:03:21.857Z,95446.51
2018-10-09T19:05:51.196Z,95449.23
2018-10-09T19:08:20.577Z,95449.84
2018-10-09T19:10:49.890Z,95454.89
2018-10-09T19:13:19.600Z,95454.76
2018-10-09T19:15:48.967Z,95460.48
2018-10-09T19:18:18.351Z,95465.17
2018-10-09T19:20:47.696Z,95475.14
2018-10-09T19:23:17.028Z,95471.34
2018-10-09T19:25:46.324Z,95474.00
2018-10-09T19:28:15.738Z,95476.05
2018-10-09T19:30:45.319Z,95473.61
2018-10-09T19:33:14.867Z,95475.75
2018-10-09T19:35:44.213Z,95475.66
2018-10-09T19:38:13.513Z,95480.42
2018-10-09T19:40:42.854Z,95477.72
2018-10-09T19:43:12.185Z,95475.23
2018-10-09T19:45:41.545Z,95477.95
2018-10-09T19:48:10.841Z,95480.02
2018-10-09T19:50:40.092Z,95482.66
2018-10-09T19:53:09.377Z,95484.05
2018-10-09T19:55:38.698Z,95482.31
2018-10-09T19:58:07.975Z,95476.68
2018-10-09T20:00:37.285Z,95481.19
2018-10-09T20:03:06.817Z,95483.44
2018-10-09T20:05:36.154Z,95485.48
2018-10-09T20:08:05.495Z,95488.13
2018-10-09T20:10:34.817Z,95493.12
2018-10-09T20:13:04.127Z,95496.36
2018-10-09T20:15:33.422Z,95491.02
2018-10-09T20:18:02.797Z,95496.63
2018-10-09T20:20:32.147Z,95498.70
2018-10-09T20:23:01.498Z,95499.03
2018-10-09T20:25:30.765Z,95501.36
2018-10-09T20:28:00.084Z,95503.05
2018-10-09T20:30:29.367Z,95502.92
2018-10-09T20:32:58.746Z,95501.73
2018-10-09T20:35:28.054Z,95499.81
2018-10-09T20:37:57.376Z,95497.95
2018-10-09T20:40:26.749Z,95498.73
2018-10-09T20:42:56.127Z,95499.97
2018-10-09T20:45:25.447Z,95505.89
2018-10-09T20:47:54.751Z,95502.30
2018-10-09T20:50:24.081Z,95500.87
2018-10-09T20:52:53.764Z,95500.09
2018-10-09T20:55:23.089Z,95496.21
2018-10-09T20:57:52.423Z,95495.18
2018-10-09T21:00:21.765Z,95496.33
2018-10-09T21:02:51.120Z,95492.50
2018-10-09T21:05:20.420Z,95494.45
2018-10-09T21:07:49.709Z,95492.95
2018-10-09T21:10:18.983Z,95496.33
2018-10-09T21:12:48.375Z,95495.44
2018-10-09T21:15:17.659Z,95495.11
2018-10-09T21:17:47.093Z,95490.44
2018-10-09T21:20:16.295Z,95491.31
2018-10-09T21:22:45.585Z,95485.64
2018-10-09T21:25:14.850Z,95489.30
2018-10-09T21:27:44.144Z,95481.37
2018-10-09T21:30:13.464Z,95484.02
2018-10-09T21:32:42.775Z,95485.27
2018-10-09T21:35:12.085Z,95483.05
2018-10-09T21:37:41.394Z,95478.19
2018-10-09T21:40:10.653Z,95482.98
2018-10-09T21:42:40.277Z,95482.43
2018-10-09T21:45:09.633Z,95486.89
2018-10-09T21:47:43.076Z,95488.14
2018-10-09T21:50:12.408Z,95484.06
2018-10-09T21:52:41.718Z,95482.89
2018-10-09T21:55:11.944Z,95481.45
2018-10-09T21:57:41.342Z,95477.25
2018-10-09T22:00:11.051Z,95482.08
2018-10-09T22:02:41.607Z,95478.34
2018-10-09T22:05:10.977Z,95480.49
2018-10-09T22:07:41.233Z,95484.91
2018-10-09T22:10:10.528Z,95485.80
2018-10-09T22:12:39.816Z,95480.49
2018-10-09T22:15:09.168Z,95480.84
2018-10-09T22:17:38.463Z,95475.58
2018-10-09T22:20:07.768Z,95475.99
2018-10-09T22:22:37.165Z,95475.33
2018-10-09T22:25:06.537Z,95470.17
2018-10-09T22:27:35.916Z,95469.30
2018-10-09T22:30:05.637Z,95473.80
2018-10-09T22:32:34.919Z,95473.44
2018-10-09T22:35:04.260Z,95472.56
2018-10-09T22:37:33.532Z,95470.00
2018-10-09T22:40:02.897Z,95467.05
2018-10-09T22:42:32.206Z,95465.63
2018-10-09T22:45:01.496Z,95463.00
2018-10-09T22:47:30.825Z,95464.42
2018-10-09T22:50:00.181Z,95462.68
2018-10-09T22:52:29.487Z,95461.73
2018-10-09T22:54:58.776Z,95459.51
2018-10-09T22:57:28.491Z,95463.27
2018-10-09T22:59:57.834Z,95463.05
2018-10-09T23:02:27.121Z,95462.89
2018-10-09T23:04:56.404Z,95463.08
2018-10-09T23:07:25.710Z,95461.91
2018-10-09T23:09:55.143Z,95462.72
2018-10-09T23:12:24.412Z,95464.54
2018-10-09T23:14:53.763Z,95456.81
2018-10-09T23:17:23.104Z,95464.95
2018-10-09T23:19:52.333Z,95455.28
2018-10-09T23:22:21.708Z,95456.30
2018-10-09T23:24:50.998Z,95454.21
2018-10-09T23:27:20.322Z,95457.79
2018-10-09T23:29:49.625Z,95448.71
2018-10-09T23:32:18.919Z,95453.59
2018-10-09T23:34:48.238Z,95444.11
2018-10-09T23:37:17.580Z,95447.73
2018-10-09T23:39:46.858Z,95440.63
2018-10-09T23:42:16.173Z,95444.53
2018-10-09T23:44:45.507Z,95449.34
2018-10-09T23:47:14.850Z,95439.10
2018-10-09T23:49:44.203Z,95439.12
2018-10-09T23:52:13.459Z,95437.90
2018-10-09T23:54:42.793Z,95440.05
2018-10-09T23:57:12.103Z,95431.43
2018-10-09T23:59:41.406Z,95424.69
